Time;durP1;ratioP1;P1;durP2;ratioP2;P2;SDS_P1;SDS_P2;PMS_P1;PMS_P2;Temp;Humidity;BMP_temperature;BMP_pressure;BME280_temperature;BME280_humidity;BME280_pressure;Samples;Min_cycle;Max_cycle;Signal;HPM_P1;HPM_P2
2022/03/14 00:00:24;;;;;;;;;6.00;3.50;;;;;;;;5057287;28;45421;-77
2022/03/14 00:02:50;;;;;;;;;5.25;4.25;;;;;;;;5056245;28;45473;-77
2022/03/14 00:05:16;;;;;;;;;4.25;4.25;;;;;;;;5056257;28;45571;-77
2022/03/14 00:07:42;;;;;;;;;1.50;1.00;;;;;;;;5056023;28;45421;-78
2022/03/14 00:10:09;;;;;;;;;4.50;4.25;;;;;;;;5056328;28;47035;-78
2022/03/14 00:12:34;;;;;;;;;4.00;3.00;;;;;;;;5056887;28;45261;-78
2022/03/14 00:15:00;;;;;;;;;5.00;3.00;;;;;;;;5056614;28;45551;-77
2022/03/14 00:17:29;;;;;;;;;2.00;2.00;;;;;;;;5056484;28;45331;-78
2022/03/14 00:19:59;;;;;;;;;4.25;3.00;;;;;;;;5056286;28;47042;-77
2022/03/14 00:22:26;;;;;;;;;4.25;4.00;;;;;;;;5056303;28;45560;-78
2022/03/14 00:24:51;;;;;;;;;4.00;2.75;;;;;;;;5040572;28;45419;-78
2022/03/14 00:27:16;;;;;;;;;3.00;3.00;;;;;;;;5056678;28;45526;-78
2022/03/14 00:29:41;;;;;;;;;3.00;3.00;;;;;;;;5056112;28;45987;-78
2022/03/14 00:32:07;;;;;;;;;5.00;3.00;;;;;;;;5054332;28;45557;-78
2022/03/14 00:34:32;;;;;;;;;4.50;3.75;;;;;;;;5041729;28;45521;-78
2022/03/14 00:36:57;;;;;;;;;3.00;3.00;;;;;;;;5056663;28;45501;-78
2022/03/14 00:39:22;;;;;;;;;2.00;2.00;;;;;;;;5056292;28;45618;-77
2022/03/14 00:41:48;;;;;;;;;3.00;2.25;;;;;;;;5056141;28;45482;-76
2022/03/14 00:44:16;;;;;;;;;3.50;2.75;;;;;;;;5056104;28;45393;-77
2022/03/14 00:46:42;;;;;;;;;1.50;1.50;;;;;;;;5056194;28;45506;-76
2022/03/14 00:49:07;;;;;;;;;2.75;2.75;;;;;;;;5055396;28;46146;-75
2022/03/14 00:51:34;;;;;;;;;2.50;2.00;;;;;;;;5055873;28;45245;-76
2022/03/14 00:54:00;;;;;;;;;3.00;3.00;;;;;;;;5055977;28;45521;-76
2022/03/14 00:56:26;;;;;;;;;2.00;2.00;;;;;;;;5037292;28;45400;-75
2022/03/14 00:58:51;;;;;;;;;2.75;2.00;;;;;;;;5055282;28;46360;-75
2022/03/14 01:01:17;;;;;;;;;4.00;2.00;;;;;;;;5055601;28;45297;-76
2022/03/14 01:03:42;;;;;;;;;4.00;3.00;;;;;;;;5056030;28;45371;-75
2022/03/14 01:06:07;;;;;;;;;2.00;2.00;;;;;;;;5055371;28;45338;-75
2022/03/14 01:08:32;;;;;;;;;3.50;2.00;;;;;;;;5055398;28;45926;-75
2022/03/14 01:10:57;;;;;;;;;2.75;2.75;;;;;;;;5055040;28;45323;-78
2022/03/14 01:13:23;;;;;;;;;3.50;1.50;;;;;;;;5040140;28;45415;-78
2022/03/14 01:15:48;;;;;;;;;2.75;2.50;;;;;;;;5056446;28;45430;-77
2022/03/14 01:18:13;;;;;;;;;2.00;2.00;;;;;;;;5054945;28;46426;-77
2022/03/14 01:20:39;;;;;;;;;2.00;2.00;;;;;;;;5054937;28;45411;-75
2022/03/14 01:23:04;;;;;;;;;3.75;2.00;;;;;;;;5055240;28;45368;-77
2022/03/14 01:25:29;;;;;;;;;1.00;1.00;;;;;;;;5055218;28;45421;-76
2022/03/14 01:27:55;;;;;;;;;3.50;1.25;;;;;;;;5055427;28;45304;-77
2022/03/14 01:30:21;;;;;;;;;2.75;2.00;;;;;;;;5055406;28;45308;-76
2022/03/14 01:32:46;;;;;;;;;3.00;3.00;;;;;;;;5055185;28;45550;-77
2022/03/14 01:35:11;;;;;;;;;1.00;1.00;;;;;;;;5055570;28;45240;-77
2022/03/14 01:37:37;;;;;;;;;3.00;3.00;;;;;;;;5055504;28;45510;-78
2022/03/14 01:40:02;;;;;;;;;4.25;3.50;;;;;;;;5055649;28;45481;-74
2022/03/14 01:42:28;;;;;;;;;2.50;2.50;;;;;;;;5037668;28;45856;-76
2022/03/14 01:44:53;;;;;;;;;2.75;1.75;;;;;;;;5055193;28;45398;-76
2022/03/14 01:47:18;;;;;;;;;2.00;2.00;;;;;;;;5054367;28;45358;-76
2022/03/14 01:49:45;;;;;;;;;3.25;2.00;;;;;;;;5054975;28;45440;-77
2022/03/14 01:52:10;;;;;;;;;2.50;2.00;;;;;;;;5039100;28;45423;-78
2022/03/14 01:54:36;;;;;;;;;2.50;2.50;;;;;;;;5056185;28;45388;-77
2022/03/14 01:57:01;;;;;;;;;2.00;2.00;;;;;;;;5054798;28;47735;-76
2022/03/14 01:59:29;;;;;;;;;3.00;2.00;;;;;;;;5054786;28;45371;-77
2022/03/14 02:01:54;;;;;;;;;3.50;1.75;;;;;;;;5054702;28;45488;-76
2022/03/14 02:04:19;;;;;;;;;2.00;1.75;;;;;;;;5054403;28;45454;-76
2022/03/14 02:06:46;;;;;;;;;3.50;2.75;;;;;;;;5055329;28;45362;-76
2022/03/14 02:09:11;;;;;;;;;3.00;1.50;;;;;;;;5054790;28;45350;-76
2022/03/14 02:11:37;;;;;;;;;4.75;3.00;;;;;;;;5054869;28;45413;-75
2022/03/14 02:14:03;;;;;;;;;3.50;3.00;;;;;;;;5054766;28;45365;-77
2022/03/14 02:16:29;;;;;;;;;1.75;1.00;;;;;;;;5054474;28;45519;-76
2022/03/14 02:18:55;;;;;;;;;3.00;2.00;;;;;;;;5054702;28;45264;-76
2022/03/14 02:21:21;;;;;;;;;2.75;2.75;;;;;;;;5054361;28;45501;-75
2022/03/14 02:23:46;;;;;;;;;4.75;2.50;;;;;;;;5054435;28;45477;-77
2022/03/14 02:26:11;;;;;;;;;4.75;3.00;;;;;;;;5054130;28;46490;-77
2022/03/14 02:28:36;;;;;;;;;4.50;3.50;;;;;;;;5054628;28;45545;-77
2022/03/14 02:31:03;;;;;;;;;1.00;1.00;;;;;;;;5038328;28;45679;-76
2022/03/14 02:33:28;;;;;;;;;2.00;2.00;;;;;;;;5055029;28;45347;-77
2022/03/14 02:35:53;;;;;;;;;1.00;1.00;;;;;;;;5054568;28;45332;-78
2022/03/14 02:38:19;;;;;;;;;2.00;2.00;;;;;;;;5054572;28;45485;-77
2022/03/14 02:40:48;;;;;;;;;2.75;1.75;;;;;;;;5054776;28;45505;-77
2022/03/14 02:43:15;;;;;;;;;1.00;1.00;;;;;;;;5054674;28;45309;-77
2022/03/14 02:45:41;;;;;;;;;4.50;3.25;;;;;;;;5054561;28;47168;-77
2022/03/14 02:48:07;;;;;;;;;3.75;3.75;;;;;;;;5054233;28;45440;-77
2022/03/14 02:50:34;;;;;;;;;7.25;4.50;;;;;;;;5054181;28;45461;-77
2022/03/14 02:52:59;;;;;;;;;3.75;2.00;;;;;;;;5054416;28;45535;-77
2022/03/14 02:55:25;;;;;;;;;4.75;2.00;;;;;;;;5054267;28;47031;-77
2022/03/14 02:57:50;;;;;;;;;5.00;3.00;;;;;;;;5054817;28;45670;-76
2022/03/14 03:00:15;;;;;;;;;5.25;2.75;;;;;;;;5053763;28;45227;-75
2022/03/14 03:02:42;;;;;;;;;3.50;3.25;;;;;;;;5054147;28;45530;-78
2022/03/14 03:05:08;;;;;;;;;2.75;2.25;;;;;;;;5053845;28;47167;-77
2022/03/14 03:07:34;;;;;;;;;3.75;2.25;;;;;;;;5053988;28;45449;-77
2022/03/14 03:10:00;;;;;;;;;4.75;1.25;;;;;;;;5038031;28;45327;-78
2022/03/14 03:12:29;;;;;;;;;5.75;2.25;;;;;;;;5054466;28;45465;-77
2022/03/14 03:14:54;;;;;;;;;2.50;2.50;;;;;;;;5054924;28;46976;-76
2022/03/14 03:17:20;;;;;;;;;1.75;1.75;;;;;;;;5057244;28;45650;-77
2022/03/14 03:19:45;;;;;;;;;2.00;2.00;;;;;;;;5057789;28;45337;-77
2022/03/14 03:22:11;;;;;;;;;5.25;4.00;;;;;;;;5057475;28;45519;-75
2022/03/14 03:24:36;;;;;;;;;2.75;2.00;;;;;;;;5057625;28;46289;-78
2022/03/14 03:27:01;;;;;;;;;3.25;2.00;;;;;;;;5057002;28;45400;-74
2022/03/14 03:29:26;;;;;;;;;2.50;1.00;;;;;;;;5056939;28;45336;-76
2022/03/14 03:31:52;;;;;;;;;2.00;2.00;;;;;;;;5057596;28;45287;-77
2022/03/14 03:34:17;;;;;;;;;5.50;4.25;;;;;;;;5057100;28;46071;-77
2022/03/14 03:36:42;;;;;;;;;4.75;3.00;;;;;;;;5057604;28;45451;-78
2022/03/14 03:39:07;;;;;;;;;4.75;2.00;;;;;;;;5057268;28;45524;-76
2022/03/14 03:41:32;;;;;;;;;5.25;3.75;;;;;;;;5057015;28;45508;-77
2022/03/14 03:43:58;;;;;;;;;3.50;3.50;;;;;;;;5056444;28;46224;-76
2022/03/14 03:46:23;;;;;;;;;7.00;2.00;;;;;;;;5057085;28;45355;-76
2022/03/14 03:48:48;;;;;;;;;5.75;3.00;;;;;;;;5041488;28;45383;-77
2022/03/14 03:51:13;;;;;;;;;4.00;2.50;;;;;;;;5056658;28;45614;-76
2022/03/14 03:53:39;;;;;;;;;5.00;2.75;;;;;;;;5056444;28;46072;-75
2022/03/14 03:56:04;;;;;;;;;3.50;3.00;;;;;;;;5056459;28;45422;-77
2022/03/14 03:58:29;;;;;;;;;5.50;4.50;;;;;;;;5056476;28;45712;-78
2022/03/14 04:00:54;;;;;;;;;7.75;4.75;;;;;;;;5056982;28;45787;-78
2022/03/14 04:03:20;;;;;;;;;6.25;3.75;;;;;;;;5056747;28;46871;-76
2022/03/14 04:05:46;;;;;;;;;4.75;4.00;;;;;;;;5038627;28;45448;-78
2022/03/14 04:08:11;;;;;;;;;2.00;2.00;;;;;;;;5056705;28;45433;-77
2022/03/14 04:10:37;;;;;;;;;5.00;4.50;;;;;;;;5038781;28;45427;-76
2022/03/14 04:13:03;;;;;;;;;2.75;2.75;;;;;;;;5039890;28;45501;-77
2022/03/14 04:15:29;;;;;;;;;3.75;2.25;;;;;;;;5056918;28;45300;-77
2022/03/14 04:17:57;;;;;;;;;4.75;3.75;;;;;;;;5056015;28;45370;-77
2022/03/14 04:20:23;;;;;;;;;4.75;3.50;;;;;;;;5056422;28;45418;-77
2022/03/14 04:22:49;;;;;;;;;2.50;2.50;;;;;;;;5056254;28;45321;-77
2022/03/14 04:25:15;;;;;;;;;6.50;2.50;;;;;;;;5056170;28;45268;-77
2022/03/14 04:27:40;;;;;;;;;2.50;2.00;;;;;;;;5040767;28;45530;-76
2022/03/14 04:30:06;;;;;;;;;5.00;3.75;;;;;;;;5054574;28;45517;-77
2022/03/14 04:32:31;;;;;;;;;7.00;3.00;;;;;;;;5055833;28;46242;-78
2022/03/14 04:34:57;;;;;;;;;6.50;3.00;;;;;;;;5055428;28;45421;-77
2022/03/14 04:37:22;;;;;;;;;6.00;3.00;;;;;;;;5040367;28;45311;-77
2022/03/14 04:39:47;;;;;;;;;5.50;2.25;;;;;;;;5057094;28;45423;-77
2022/03/14 04:42:15;;;;;;;;;3.00;2.00;;;;;;;;5055327;28;45481;-76
2022/03/14 04:44:40;;;;;;;;;4.50;3.25;;;;;;;;5055955;28;45307;-78
2022/03/14 04:47:05;;;;;;;;;3.25;1.75;;;;;;;;5055670;28;45540;-77
2022/03/14 04:49:31;;;;;;;;;4.00;4.00;;;;;;;;5055832;28;45462;-77
2022/03/14 04:51:56;;;;;;;;;7.75;5.00;;;;;;;;5055666;28;47851;-77
2022/03/14 04:54:22;;;;;;;;;4.00;3.25;;;;;;;;5055935;28;45317;-76
2022/03/14 04:56:48;;;;;;;;;4.75;3.00;;;;;;;;5055233;28;45565;-78
2022/03/14 04:59:13;;;;;;;;;4.00;4.00;;;;;;;;5055357;28;45574;-77
2022/03/14 05:01:39;;;;;;;;;5.00;2.50;;;;;;;;5055153;28;46086;-77
2022/03/14 05:04:05;;;;;;;;;2.00;2.00;;;;;;;;5055609;28;45430;-78
2022/03/14 05:06:32;;;;;;;;;5.25;3.00;;;;;;;;5053871;28;45601;-77
2022/03/14 05:08:57;;;;;;;;;5.50;4.25;;;;;;;;5055066;28;45534;-78
2022/03/14 05:11:23;;;;;;;;;8.75;4.25;;;;;;;;5054434;28;45394;-76
2022/03/14 05:13:48;;;;;;;;;1.50;1.00;;;;;;;;5055202;28;45450;-76
2022/03/14 05:16:13;;;;;;;;;3.50;3.50;;;;;;;;5055261;28;45557;-78
2022/03/14 05:18:38;;;;;;;;;4.75;4.75;;;;;;;;5055488;28;45398;-78
2022/03/14 05:21:04;;;;;;;;;2.00;2.00;;;;;;;;5054891;28;46962;-78
2022/03/14 05:23:29;;;;;;;;;3.75;3.75;;;;;;;;5055078;28;45554;-77
2022/03/14 05:25:55;;;;;;;;;6.75;5.00;;;;;;;;5055282;28;45758;-76
2022/03/14 05:28:21;;;;;;;;;6.75;5.50;;;;;;;;5055490;28;45462;-76
2022/03/14 05:30:46;;;;;;;;;9.00;5.00;;;;;;;;5055206;28;46080;-76
2022/03/14 05:33:11;;;;;;;;;5.00;3.75;;;;;;;;5054340;28;45321;-78
2022/03/14 05:35:37;;;;;;;;;4.25;4.25;;;;;;;;5054583;28;45455;-76
2022/03/14 05:38:02;;;;;;;;;4.00;4.00;;;;;;;;5054507;28;45490;-77
2022/03/14 05:40:27;;;;;;;;;8.75;3.00;;;;;;;;5054316;28;46127;-78
2022/03/14 05:42:52;;;;;;;;;4.25;4.25;;;;;;;;5054366;28;45502;-77
2022/03/14 05:45:18;;;;;;;;;3.00;3.00;;;;;;;;5042748;28;45382;-75
2022/03/14 05:47:44;;;;;;;;;9.00;7.25;;;;;;;;5049494;28;45323;-81
2022/03/14 05:50:09;;;;;;;;;3.75;3.75;;;;;;;;5052217;28;46203;-83
2022/03/14 05:52:34;;;;;;;;;5.00;5.00;;;;;;;;5040592;28;45479;-84
2022/03/14 05:55:00;;;;;;;;;3.50;3.50;;;;;;;;5054148;28;45357;-83
2022/03/14 05:57:25;;;;;;;;;5.00;4.00;;;;;;;;5041854;28;45296;-82
2022/03/14 05:59:50;;;;;;;;;9.50;6.50;;;;;;;;5049893;28;45374;-79
2022/03/14 06:02:22;;;;;;;;;5.50;5.50;;;;;;;;5053486;28;46002;-78
2022/03/14 06:04:47;;;;;;;;;7.50;5.50;;;;;;;;5053357;28;45335;-78
2022/03/14 06:07:13;;;;;;;;;8.00;5.00;;;;;;;;5053333;28;45244;-78
2022/03/14 06:09:39;;;;;;;;;9.75;5.00;;;;;;;;5053542;28;46073;-78
2022/03/14 06:12:04;;;;;;;;;8.00;5.75;;;;;;;;5053392;28;45330;-78
2022/03/14 06:14:30;;;;;;;;;14.00;8.25;;;;;;;;5053821;28;45582;-78
2022/03/14 06:16:55;;;;;;;;;9.75;6.75;;;;;;;;5053118;28;45555;-77
2022/03/14 06:19:20;;;;;;;;;9.50;5.00;;;;;;;;5053959;28;45503;-77
2022/03/14 06:21:45;;;;;;;;;9.25;8.75;;;;;;;;5054185;28;45565;-78
2022/03/14 06:24:10;;;;;;;;;8.50;5.00;;;;;;;;5042076;28;45515;-77
2022/03/14 06:26:36;;;;;;;;;6.50;5.50;;;;;;;;5046639;28;45335;-79
2022/03/14 06:29:02;;;;;;;;;6.75;5.00;;;;;;;;5051731;28;46697;-77
2022/03/14 06:31:29;;;;;;;;;9.00;6.50;;;;;;;;5038050;28;45418;-79
2022/03/14 06:33:54;;;;;;;;;10.75;8.50;;;;;;;;5053085;28;45271;-80
2022/03/14 06:36:20;;;;;;;;;7.75;6.75;;;;;;;;5053173;28;45347;-78
2022/03/14 06:38:46;;;;;;;;;7.50;5.00;;;;;;;;5052133;28;46478;-78
2022/03/14 06:41:11;;;;;;;;;14.50;9.50;;;;;;;;5052616;28;45300;-78
2022/03/14 06:43:37;;;;;;;;;11.00;6.50;;;;;;;;5052951;28;45317;-79
2022/03/14 06:46:04;;;;;;;;;6.25;5.25;;;;;;;;5052619;28;45353;-79
2022/03/14 06:48:29;;;;;;;;;8.50;7.00;;;;;;;;5053262;28;47296;-79
2022/03/14 06:50:54;;;;;;;;;9.50;5.00;;;;;;;;5055104;28;45489;-80
2022/03/14 06:53:20;;;;;;;;;6.50;5.25;;;;;;;;5052492;28;45719;-79
2022/03/14 06:55:45;;;;;;;;;6.75;4.00;;;;;;;;5043538;28;45428;-76
2022/03/14 06:58:10;;;;;;;;;10.00;8.75;;;;;;;;5055438;28;46228;-79
2022/03/14 07:00:36;;;;;;;;;8.50;7.25;;;;;;;;5041913;28;45499;-79
2022/03/14 07:03:01;;;;;;;;;10.00;5.75;;;;;;;;5054299;28;45619;-77
2022/03/14 07:05:26;;;;;;;;;12.75;11.75;;;;;;;;5055675;28;45374;-78
2022/03/14 07:07:52;;;;;;;;;7.75;6.75;;;;;;;;5055165;28;46254;-79
2022/03/14 07:10:17;;;;;;;;;5.50;5.25;;;;;;;;5055766;28;45629;-79
2022/03/14 07:12:45;;;;;;;;;5.25;5.25;;;;;;;;5056293;28;45399;-77
2022/03/14 07:15:16;;;;;;;;;7.00;7.00;;;;;;;;5055812;28;45417;-78
2022/03/14 07:17:41;;;;;;;;;11.75;9.25;;;;;;;;5055622;28;46193;-78
2022/03/14 07:20:07;;;;;;;;;7.50;6.00;;;;;;;;5055476;28;45469;-78
2022/03/14 07:22:33;;;;;;;;;10.50;9.25;;;;;;;;5035665;28;45441;-78
2022/03/14 07:24:59;;;;;;;;;10.75;8.00;;;;;;;;5055145;28;45444;-78
2022/03/14 07:27:24;;;;;;;;;9.50;8.25;;;;;;;;5056194;28;46941;-79
2022/03/14 07:29:49;;;;;;;;;9.75;7.00;;;;;;;;5055681;28;45552;-78
2022/03/14 07:32:14;;;;;;;;;6.50;6.00;;;;;;;;5037333;28;45387;-79
2022/03/14 07:34:39;;;;;;;;;10.75;7.25;;;;;;;;5055210;28;45412;-80
2022/03/14 07:37:05;;;;;;;;;11.50;6.00;;;;;;;;5055213;28;46467;-77
2022/03/14 07:39:30;;;;;;;;;9.50;6.00;;;;;;;;5055542;28;45371;-78
2022/03/14 07:41:55;;;;;;;;;7.00;6.50;;;;;;;;5046061;28;45498;-78
2022/03/14 07:44:21;;;;;;;;;9.25;6.75;;;;;;;;5047498;28;45398;-76
2022/03/14 07:46:46;;;;;;;;;5.75;5.75;;;;;;;;5054499;28;46234;-75
2022/03/14 07:49:12;;;;;;;;;10.00;7.25;;;;;;;;5054703;28;45604;-79
2022/03/14 07:51:37;;;;;;;;;12.75;6.50;;;;;;;;5054757;28;45580;-77
2022/03/14 07:54:03;;;;;;;;;9.75;6.50;;;;;;;;5054050;28;45434;-75
2022/03/14 07:56:28;;;;;;;;;14.25;9.75;;;;;;;;5050514;28;45312;-77
2022/03/14 07:58:53;;;;;;;;;12.50;9.00;;;;;;;;5043125;28;45421;-76
2022/03/14 08:01:19;;;;;;;;;11.50;8.25;;;;;;;;5053650;28;45216;-78
2022/03/14 08:03:45;;;;;;;;;12.00;8.50;;;;;;;;5055037;28;45392;-77
2022/03/14 08:06:11;;;;;;;;;8.00;7.00;;;;;;;;5043390;28;45483;-77
2022/03/14 08:08:36;;;;;;;;;7.75;7.75;;;;;;;;5048621;28;45453;-77
2022/03/14 08:11:04;;;;;;;;;10.75;8.00;;;;;;;;5054781;28;45469;-75
2022/03/14 08:13:29;;;;;;;;;11.25;8.50;;;;;;;;5055221;28;45504;-77
2022/03/14 08:15:54;;;;;;;;;9.75;8.50;;;;;;;;5054798;28;46013;-75
2022/03/14 08:18:20;;;;;;;;;10.75;10.00;;;;;;;;5054835;28;45266;-78
2022/03/14 08:20:45;;;;;;;;;7.25;5.25;;;;;;;;5047495;28;45362;-77
2022/03/14 08:23:10;;;;;;;;;7.25;6.00;;;;;;;;5044472;28;45366;-77
2022/03/14 08:25:36;;;;;;;;;11.75;8.50;;;;;;;;5035155;28;48258;-77
2022/03/14 08:28:02;;;;;;;;;9.50;9.50;;;;;;;;5054323;28;45272;-79
2022/03/14 08:30:27;;;;;;;;;5.75;5.25;;;;;;;;5036047;28;45351;-78
2022/03/14 08:32:54;;;;;;;;;11.50;11.50;;;;;;;;5053875;28;45509;-75
2022/03/14 08:35:20;;;;;;;;;14.00;12.25;;;;;;;;5053209;28;46359;-78
2022/03/14 08:37:46;;;;;;;;;10.75;8.00;;;;;;;;5053885;28;45489;-78
2022/03/14 08:40:13;;;;;;;;;15.00;11.00;;;;;;;;5053938;28;45368;-78
2022/03/14 08:42:39;;;;;;;;;9.75;9.00;;;;;;;;5054937;28;45495;-78
2022/03/14 08:45:05;;;;;;;;;10.25;9.00;;;;;;;;5054140;28;47089;-78
2022/03/14 08:47:30;;;;;;;;;13.50;11.50;;;;;;;;5053703;28;45866;-76
2022/03/14 08:49:56;;;;;;;;;11.25;11.25;;;;;;;;5054479;28;45435;-78
2022/03/14 08:52:21;;;;;;;;;11.25;11.00;;;;;;;;5054875;28;45481;-78
2022/03/14 08:54:46;;;;;;;;;15.00;11.00;;;;;;;;5055067;28;45643;-76
2022/03/14 08:57:11;;;;;;;;;10.50;7.50;;;;;;;;5054113;28;45180;-78
2022/03/14 08:59:37;;;;;;;;;11.75;11.25;;;;;;;;5048300;28;45592;-78
2022/03/14 09:02:02;;;;;;;;;10.75;9.75;;;;;;;;5043213;28;45382;-77
2022/03/14 09:04:27;;;;;;;;;12.50;10.75;;;;;;;;5053501;28;46267;-78
2022/03/14 09:06:52;;;;;;;;;11.25;10.25;;;;;;;;5054311;28;45320;-77
2022/03/14 09:09:18;;;;;;;;;10.75;10.50;;;;;;;;5054195;28;45508;-76
2022/03/14 09:11:44;;;;;;;;;10.75;10.75;;;;;;;;5053921;28;45286;-76
2022/03/14 09:14:09;;;;;;;;;9.25;8.00;;;;;;;;5053710;28;47176;-77
2022/03/14 09:16:35;;;;;;;;;12.50;12.50;;;;;;;;5054005;28;45224;-78
2022/03/14 09:19:00;;;;;;;;;11.50;11.25;;;;;;;;5053773;28;45324;-78
2022/03/14 09:21:26;;;;;;;;;15.25;9.75;;;;;;;;5054716;28;45453;-78
2022/03/14 09:23:51;;;;;;;;;19.50;14.75;;;;;;;;5053262;28;45840;-79
2022/03/14 09:26:17;;;;;;;;;16.50;12.00;;;;;;;;5052985;28;45315;-78
2022/03/14 09:28:44;;;;;;;;;12.25;11.75;;;;;;;;5053654;28;45332;-77
2022/03/14 09:31:11;;;;;;;;;12.25;10.75;;;;;;;;5052554;28;45373;-76
2022/03/14 09:33:36;;;;;;;;;13.75;12.00;;;;;;;;5053402;28;47256;-77
2022/03/14 09:36:02;;;;;;;;;20.00;11.25;;;;;;;;5052673;28;46092;-78
2022/03/14 09:38:29;;;;;;;;;11.00;10.75;;;;;;;;5049010;28;45580;-78
2022/03/14 09:40:55;;;;;;;;;16.50;13.00;;;;;;;;5041678;28;45597;-79
2022/03/14 09:43:22;;;;;;;;;10.50;10.50;;;;;;;;5037041;28;46235;-77
2022/03/14 09:45:48;;;;;;;;;11.75;10.75;;;;;;;;5053167;28;45686;-77
2022/03/14 09:48:16;;;;;;;;;13.50;11.50;;;;;;;;5052933;28;45343;-77
2022/03/14 09:50:44;;;;;;;;;11.50;10.00;;;;;;;;5052888;28;45522;-78
2022/03/14 09:53:10;;;;;;;;;13.50;9.50;;;;;;;;5035040;28;46303;-76
2022/03/14 09:55:43;;;;;;;;;12.50;9.25;;;;;;;;5053462;28;45391;-77
2022/03/14 09:58:09;;;;;;;;;10.00;10.00;;;;;;;;5053407;28;45633;-77
2022/03/14 10:00:35;;;;;;;;;13.00;12.00;;;;;;;;5053514;28;45367;-77
2022/03/14 10:03:02;;;;;;;;;12.00;11.25;;;;;;;;5053026;28;45454;-78
2022/03/14 10:05:27;;;;;;;;;14.25;10.00;;;;;;;;5052926;28;45394;-78
2022/03/14 10:07:52;;;;;;;;;9.50;8.75;;;;;;;;5052833;28;45390;-77
2022/03/14 10:10:17;;;;;;;;;8.25;7.25;;;;;;;;5052619;28;45488;-76
2022/03/14 10:12:45;;;;;;;;;7.50;7.25;;;;;;;;5053063;28;46239;-76
2022/03/14 10:15:11;;;;;;;;;13.25;12.75;;;;;;;;5052156;28;45498;-77
2022/03/14 10:17:36;;;;;;;;;13.75;12.00;;;;;;;;5052568;28;45297;-77
2022/03/14 10:20:03;;;;;;;;;11.75;10.50;;;;;;;;5052600;28;45479;-77
2022/03/14 10:22:33;;;;;;;;;16.50;15.00;;;;;;;;5052331;28;45447;-76
2022/03/14 10:25:04;;;;;;;;;17.25;15.25;;;;;;;;5051338;28;45547;-77
2022/03/14 10:27:29;;;;;;;;;11.25;10.50;;;;;;;;5040163;28;45374;-77
2022/03/14 10:29:55;;;;;;;;;11.50;8.25;;;;;;;;5049207;28;45319;-77
2022/03/14 10:32:30;;;;;;;;;17.25;16.00;;;;;;;;5052460;28;45385;-77
2022/03/14 10:34:57;;;;;;;;;16.25;12.75;;;;;;;;5052011;28;45494;-77
2022/03/14 10:37:25;;;;;;;;;12.75;9.25;;;;;;;;5052187;28;45461;-78
2022/03/14 10:39:55;;;;;;;;;10.75;9.00;;;;;;;;5052924;28;45335;-84
2022/03/14 10:42:20;;;;;;;;;19.00;15.75;;;;;;;;5052050;28;45433;-77
2022/03/14 10:44:47;;;;;;;;;6.75;5.25;;;;;;;;5033273;28;45809;-76
2022/03/14 10:47:13;;;;;;;;;9.25;7.50;;;;;;;;5052758;28;45311;-76
2022/03/14 10:49:39;;;;;;;;;10.00;10.00;;;;;;;;5052050;28;45343;-77
2022/03/14 10:52:06;;;;;;;;;6.50;6.50;;;;;;;;5052070;28;46754;-77
2022/03/14 10:54:35;;;;;;;;;8.50;7.00;;;;;;;;5050934;28;45398;-76
2022/03/14 10:57:08;;;;;;;;;7.25;6.00;;;;;;;;5042869;28;45459;-77
2022/03/14 10:59:35;;;;;;;;;9.25;9.00;;;;;;;;5045763;28;45555;-76
2022/03/14 11:02:01;;;;;;;;;10.50;6.75;;;;;;;;5051852;28;46109;-76
2022/03/14 11:04:27;;;;;;;;;11.00;8.75;;;;;;;;5052277;28;45564;-77
2022/03/14 11:06:59;;;;;;;;;9.75;8.75;;;;;;;;5052922;28;45493;-77
2022/03/14 11:09:35;;;;;;;;;8.00;6.33;;;;;;;;5049715;28;45387;-75
2022/03/14 11:12:08;;;;;;;;;10.00;9.50;;;;;;;;5051697;28;46444;-77
2022/03/14 11:14:33;;;;;;;;;14.00;10.33;;;;;;;;5051413;28;45533;-77
2022/03/14 11:17:10;;;;;;;;;6.00;6.00;;;;;;;;5052234;28;45644;-75
2022/03/14 11:19:36;;;;;;;;;8.33;5.00;;;;;;;;5054473;28;45568;-76
2022/03/14 11:22:01;;;;;;;;;5.67;3.33;;;;;;;;5035545;28;45831;-76
2022/03/14 11:24:26;;;;;;;;;4.67;4.67;;;;;;;;5052247;28;45458;-76
2022/03/14 11:26:52;;;;;;;;;5.33;4.00;;;;;;;;5051920;28;45570;-76
2022/03/14 11:29:17;;;;;;;;;4.67;4.00;;;;;;;;5033132;28;45355;-76
2022/03/14 11:31:47;;;;;;;;;4.67;3.67;;;;;;;;5051519;28;46303;-76
2022/03/14 11:34:13;;;;;;;;;5.33;4.00;;;;;;;;5051325;28;45393;-76
2022/03/14 11:36:40;;;;;;;;;7.33;5.33;;;;;;;;5054566;28;45313;-82
2022/03/14 11:39:06;;;;;;;;;6.33;5.33;;;;;;;;5050172;28;46513;-77
2022/03/14 11:41:33;;;;;;;;;6.67;6.33;;;;;;;;5047195;28;46861;-75
2022/03/14 11:43:59;;;;;;;;;7.67;7.00;;;;;;;;5054018;28;45450;-77
2022/03/14 11:46:25;;;;;;;;;9.00;7.67;;;;;;;;5054357;28;45339;-76
2022/03/14 11:48:50;;;;;;;;;8.00;7.00;;;;;;;;5054564;28;45311;-77
2022/03/14 11:51:16;;;;;;;;;7.33;6.33;;;;;;;;5053351;28;45377;-75
2022/03/14 11:53:48;;;;;;;;;6.33;5.67;;;;;;;;5053856;28;45508;-76
2022/03/14 11:56:13;;;;;;;;;18.75;13.25;;;;;;;;5054030;28;45331;-76
2022/03/14 11:58:47;;;;;;;;;11.67;10.67;;;;;;;;5054672;28;45402;-76
2022/03/14 12:01:14;;;;;;;;;7.75;7.25;;;;;;;;5054129;28;46579;-77
2022/03/14 12:03:47;;;;;;;;;17.00;12.50;;;;;;;;5054106;28;45425;-76
2022/03/14 12:06:12;;;;;;;;;7.00;5.33;;;;;;;;5055567;28;45438;-88
2022/03/14 12:08:37;;;;;;;;;15.00;11.50;;;;;;;;5055025;28;45479;-75
2022/03/14 12:11:22;;;;;;;;;8.00;6.00;;;;;;;;5054299;28;45973;-79
2022/03/14 12:13:47;;;;;;;;;7.67;5.00;;;;;;;;5054014;28;45356;-79
2022/03/14 12:16:33;;;;;;;;;4.00;4.00;;;;;;;;5037781;28;45355;-79
2022/03/14 12:18:58;;;;;;;;;13.00;9.75;;;;;;;;5030691;28;45546;-89
2022/03/14 12:21:42;;;;;;;;;9.00;5.33;;;;;;;;5052576;28;45644;-86
2022/03/14 12:24:07;;;;;;;;;7.00;6.75;;;;;;;;5045325;28;45384;-86
2022/03/14 12:26:34;;;;;;;;;8.67;4.67;;;;;;;;5053071;28;45366;-87
2022/03/14 12:29:19;;;;;;;;;7.00;5.50;;;;;;;;5060165;28;45459;-84
2022/03/14 12:31:44;;;;;;;;;4.67;3.00;;;;;;;;5055699;28;46819;-86
2022/03/14 12:34:11;;;;;;;;;2.00;1.67;;;;;;;;5055698;28;45511;-87
2022/03/14 12:36:40;;;;;;;;;3.33;3.00;;;;;;;;5055308;28;45698;-86
2022/03/14 12:39:09;;;;;;;;;3.67;2.67;;;;;;;;5054501;28;45473;-86
2022/03/14 12:41:38;;;;;;;;;5.67;4.33;;;;;;;;5053928;28;46429;-84
2022/03/14 12:44:20;;;;;;;;;4.33;3.33;;;;;;;;5053583;28;45501;-85
2022/03/14 12:46:46;;;;;;;;;3.00;3.00;;;;;;;;5051858;28;45359;-84
2022/03/14 12:49:11;;;;;;;;;2.67;1.33;;;;;;;;5037779;28;45594;-89
2022/03/14 12:51:39;;;;;;;;;7.75;4.75;;;;;;;;5040722;28;45252;-89
2022/03/14 12:54:05;;;;;;;;;2.00;2.00;;;;;;;;5053176;28;45663;-87
2022/03/14 12:56:31;;;;;;;;;2.00;2.00;;;;;;;;5055836;28;45519;-87
2022/03/14 12:58:58;;;;;;;;;2.33;2.00;;;;;;;;5054454;28;45420;-85
2022/03/14 13:01:24;;;;;;;;;1.00;1.00;;;;;;;;5054338;28;47175;-84
2022/03/14 13:03:49;;;;;;;;;2.33;2.33;;;;;;;;5053577;28;45401;-86
2022/03/14 13:06:14;;;;;;;;;5.00;3.00;;;;;;;;5061544;28;45484;-88
2022/03/14 13:08:47;;;;;;;;;4.00;3.00;;;;;;;;5054891;28;45387;-87
2022/03/14 13:11:12;;;;;;;;;7.67;4.00;;;;;;;;5051719;28;47082;-84
2022/03/14 13:13:38;;;;;;;;;3.67;3.67;;;;;;;;5040669;28;45411;-88
2022/03/14 13:16:03;;;;;;;;;10.00;9.50;;;;;;;;5056347;28;45171;-83
2022/03/14 13:18:31;;;;;;;;;5.00;2.33;;;;;;;;5054172;28;45415;-85
2022/03/14 13:20:56;;;;;;;;;7.67;6.00;;;;;;;;5053931;28;47073;-88
2022/03/14 13:23:22;;;;;;;;;5.67;4.00;;;;;;;;5053375;28;45258;-86
2022/03/14 13:25:48;;;;;;;;;2.33;2.33;;;;;;;;5054706;28;45914;-84
2022/03/14 13:28:26;;;;;;;;;3.67;2.67;;;;;;;;5054103;28;45384;-84
2022/03/14 13:30:52;;;;;;;;;3.00;2.00;;;;;;;;5049854;28;45327;-85
2022/03/14 13:33:27;;;;;;;;;3.67;3.67;;;;;;;;5042055;28;45348;-85
2022/03/14 13:35:56;;;;;;;;;5.33;3.00;;;;;;;;5050981;28;45405;-86
2022/03/14 13:38:31;;;;;;;;;5.67;4.67;;;;;;;;5053812;28;45500;-87
2022/03/14 13:40:57;;;;;;;;;1.67;1.67;;;;;;;;5054176;28;46457;-82
2022/03/14 13:43:22;;;;;;;;;3.00;3.00;;;;;;;;5041831;28;45429;-86
2022/03/14 13:45:48;;;;;;;;;2.00;2.00;;;;;;;;5040934;28;45257;-85
2022/03/14 13:48:19;;;;;;;;;1.33;1.33;;;;;;;;5053770;28;45535;-86
2022/03/14 13:50:45;;;;;;;;;4.00;3.00;;;;;;;;5052690;28;46489;-86
2022/03/14 13:53:20;;;;;;;;;2.00;2.00;;;;;;;;5053111;28;45420;-83
2022/03/14 13:55:52;;;;;;;;;2.00;2.00;;;;;;;;5056233;28;45656;-88
2022/03/14 13:58:24;;;;;;;;;1.00;1.00;;;;;;;;5054112;28;45587;-87
2022/03/14 14:00:50;;;;;;;;;2.00;2.00;;;;;;;;5049705;28;46357;-84
2022/03/14 14:03:20;;;;;;;;;3.00;3.00;;;;;;;;5053327;28;45528;-87
2022/03/14 14:05:45;;;;;;;;;3.00;2.00;;;;;;;;5046773;28;45401;-87
2022/03/14 14:08:10;;;;;;;;;3.33;2.00;;;;;;;;5043809;28;45518;-86
2022/03/14 14:10:36;;;;;;;;;2.67;2.67;;;;;;;;5052905;28;46078;-87
2022/03/14 14:13:02;;;;;;;;;4.00;3.00;;;;;;;;5054071;28;45412;-88
2022/03/14 14:15:44;;;;;;;;;3.00;3.00;;;;;;;;5023558;28;45463;-88
2022/03/14 14:18:16;;;;;;;;;7.33;3.00;;;;;;;;5043128;28;45288;-87
2022/03/14 14:20:41;;;;;;;;;1.33;1.00;;;;;;;;5049450;28;46345;-88
2022/03/14 14:23:12;;;;;;;;;2.33;1.67;;;;;;;;5055438;28;45537;-85
2022/03/14 14:25:43;;;;;;;;;3.00;3.00;;;;;;;;5044366;28;45516;-85
2022/03/14 14:28:09;;;;;;;;;3.00;2.00;;;;;;;;5054756;28;47363;-86
2022/03/14 14:30:42;;;;;;;;;0.67;0.67;;;;;;;;5040521;28;46147;-86
2022/03/14 14:33:21;;;;;;;;;1.33;1.33;;;;;;;;5052196;28;45365;-85